sensor_id;sensor_type;location;lat;lon;timestamp;pressure;altitude;pressure_sealevel;temperature;humidity
81961;BME280;71462;50.650;6.888;2023-09-19T00:00:44;99127.72;;;13.71;73.75
81961;BME280;71462;50.650;6.888;2023-09-19T00:02:52;99127.88;;;13.40;72.77
81961;BME280;71462;50.650;6.888;2023-09-19T00:04:55;99135.44;;;13.47;74.58
81961;BME280;71462;50.650;6.888;2023-09-19T00:06:57;99134.03;;;13.75;73.80
81961;BME280;71462;50.650;6.888;2023-09-19T00:09:00;99129.56;;;13.88;71.59
81961;BME280;71462;50.650;6.888;2023-09-19T00:11:04;99130.66;;;13.87;71.27
81961;BME280;71462;50.650;6.888;2023-09-19T00:13:08;99137.50;;;13.67;72.68
81961;BME280;71462;50.650;6.888;2023-09-19T00:15:14;99137.28;;;13.98;72.63
81961;BME280;71462;50.650;6.888;2023-09-19T00:17:20;99146.97;;;13.90;72.90
81961;BME280;71462;50.650;6.888;2023-09-19T00:19:23;99143.78;;;13.88;72.36
81961;BME280;71462;50.650;6.888;2023-09-19T00:21:26;99144.31;;;14.20;71.79
81961;BME280;71462;50.650;6.888;2023-09-19T00:23:29;99148.09;;;13.72;72.68
81961;BME280;71462;50.650;6.888;2023-09-19T00:25:35;99145.25;;;13.68;71.59
81961;BME280;71462;50.650;6.888;2023-09-19T00:27:39;99135.59;;;13.76;72.31
81961;BME280;71462;50.650;6.888;2023-09-19T00:29:43;99130.84;;;13.82;72.41
81961;BME280;71462;50.650;6.888;2023-09-19T00:31:45;99132.25;;;13.96;71.30
81961;BME280;71462;50.650;6.888;2023-09-19T00:33:49;99135.06;;;14.00;71.42
81961;BME280;71462;50.650;6.888;2023-09-19T00:35:53;99136.34;;;14.02;72.64
81961;BME280;71462;50.650;6.888;2023-09-19T00:37:55;99141.63;;;14.28;70.58
81961;BME280;71462;50.650;6.888;2023-09-19T00:39:58;99137.25;;;14.07;71.20
81961;BME280;71462;50.650;6.888;2023-09-19T00:41:59;99138.16;;;14.28;70.74
81961;BME280;71462;50.650;6.888;2023-09-19T00:44:06;99141.44;;;13.78;70.18
81961;BME280;71462;50.650;6.888;2023-09-19T00:46:10;99146.97;;;13.90;69.74
81961;BME280;71462;50.650;6.888;2023-09-19T00:48:13;99141.56;;;13.99;70.69
81961;BME280;71462;50.650;6.888;2023-09-19T00:50:19;99142.22;;;13.96;69.06
81961;BME280;71462;50.650;6.888;2023-09-19T00:52:22;99158.34;;;13.79;70.38
81961;BME280;71462;50.650;6.888;2023-09-19T00:54:25;99152.03;;;13.75;70.35
81961;BME280;71462;50.650;6.888;2023-09-19T00:56:30;99151.69;;;13.16;71.16
81961;BME280;71462;50.650;6.888;2023-09-19T00:58:33;99156.78;;;13.34;70.88
81961;BME280;71462;50.650;6.888;2023-09-19T01:00:37;99155.97;;;13.42;70.63
81961;BME280;71462;50.650;6.888;2023-09-19T01:02:39;99159.94;;;13.45;71.00
81961;BME280;71462;50.650;6.888;2023-09-19T01:04:42;99149.34;;;13.49;70.56
81961;BME280;71462;50.650;6.888;2023-09-19T01:06:46;99159.94;;;13.45;70.82
81961;BME280;71462;50.650;6.888;2023-09-19T01:08:54;99169.72;;;13.50;70.25
81961;BME280;71462;50.650;6.888;2023-09-19T01:11:01;99168.78;;;13.71;69.88
81961;BME280;71462;50.650;6.888;2023-09-19T01:13:10;99167.34;;;13.91;69.88
81961;BME280;71462;50.650;6.888;2023-09-19T01:15:27;99166.06;;;13.97;68.71
81961;BME280;71462;50.650;6.888;2023-09-19T01:17:34;99173.03;;;13.98;70.26
81961;BME280;71462;50.650;6.888;2023-09-19T01:20:03;99167.69;;;13.90;70.34
81961;BME280;71462;50.650;6.888;2023-09-19T01:22:16;99173.09;;;14.19;67.39
81961;BME280;71462;50.650;6.888;2023-09-19T01:24:40;99175.84;;;14.11;68.69
81961;BME280;71462;50.650;6.888;2023-09-19T01:27:06;99181.88;;;13.38;68.97
81961;BME280;71462;50.650;6.888;2023-09-19T01:29:26;99192.78;;;13.42;69.80
81961;BME280;71462;50.650;6.888;2023-09-19T01:31:37;99196.44;;;13.72;69.58
81961;BME280;71462;50.650;6.888;2023-09-19T01:33:54;99189.63;;;13.31;69.96
81961;BME280;71462;50.650;6.888;2023-09-19T01:36:00;99194.34;;;13.34;67.82
81961;BME280;71462;50.650;6.888;2023-09-19T01:38:03;99207.00;;;13.25;67.87
81961;BME280;71462;50.650;6.888;2023-09-19T01:40:07;99200.38;;;13.31;69.04
81961;BME280;71462;50.650;6.888;2023-09-19T01:42:24;99203.63;;;13.20;68.18
81961;BME280;71462;50.650;6.888;2023-09-19T01:44:38;99209.53;;;13.30;67.24
81961;BME280;71462;50.650;6.888;2023-09-19T01:46:44;99207.16;;;13.46;67.82
81961;BME280;71462;50.650;6.888;2023-09-19T01:48:54;99212.53;;;13.55;66.17
81961;BME280;71462;50.650;6.888;2023-09-19T01:51:02;99210.75;;;13.16;67.14
81961;BME280;71462;50.650;6.888;2023-09-19T01:53:10;99205.56;;;13.36;66.94
81961;BME280;71462;50.650;6.888;2023-09-19T01:55:16;99207.31;;;13.32;66.59
81961;BME280;71462;50.650;6.888;2023-09-19T01:57:26;99205.25;;;13.38;67.28
81961;BME280;71462;50.650;6.888;2023-09-19T01:59:36;99216.00;;;13.38;65.47
81961;BME280;71462;50.650;6.888;2023-09-19T02:01:44;99216.34;;;13.62;65.47
81961;BME280;71462;50.650;6.888;2023-09-19T02:03:47;99223.75;;;14.00;64.88
81961;BME280;71462;50.650;6.888;2023-09-19T02:05:51;99216.81;;;13.99;65.00
81961;BME280;71462;50.650;6.888;2023-09-19T02:07:56;99220.41;;;13.42;66.66
81961;BME280;71462;50.650;6.888;2023-09-19T02:10:00;99218.06;;;13.58;67.10
81961;BME280;71462;50.650;6.888;2023-09-19T02:12:03;99221.53;;;13.59;66.19
81961;BME280;71462;50.650;6.888;2023-09-19T02:14:05;99227.56;;;13.82;65.60
81961;BME280;71462;50.650;6.888;2023-09-19T02:16:09;99232.78;;;13.78;65.46
81961;BME280;71462;50.650;6.888;2023-09-19T02:18:15;99227.72;;;13.85;67.07
81961;BME280;71462;50.650;6.888;2023-09-19T02:20:18;99235.91;;;14.23;65.14
81961;BME280;71462;50.650;6.888;2023-09-19T02:22:21;99237.63;;;14.28;64.81
81961;BME280;71462;50.650;6.888;2023-09-19T02:24:24;99233.22;;;14.06;65.42
81961;BME280;71462;50.650;6.888;2023-09-19T02:26:28;99243.19;;;14.14;65.02
81961;BME280;71462;50.650;6.888;2023-09-19T02:28:30;99241.28;;;14.15;64.75
81961;BME280;71462;50.650;6.888;2023-09-19T02:30:33;99244.25;;;14.30;65.07
81961;BME280;71462;50.650;6.888;2023-09-19T02:32:36;99244.63;;;13.86;65.59
81961;BME280;71462;50.650;6.888;2023-09-19T02:34:41;99244.63;;;14.03;64.78
81961;BME280;71462;50.650;6.888;2023-09-19T02:36:44;99247.16;;;14.08;63.73
81961;BME280;71462;50.650;6.888;2023-09-19T02:38:48;99241.63;;;13.87;65.10
81961;BME280;71462;50.650;6.888;2023-09-19T02:40:51;99253.31;;;14.09;64.92
81961;BME280;71462;50.650;6.888;2023-09-19T02:42:55;99251.38;;;14.18;64.21
81961;BME280;71462;50.650;6.888;2023-09-19T02:45:00;99242.72;;;14.12;64.57
81961;BME280;71462;50.650;6.888;2023-09-19T02:47:05;99245.09;;;14.22;64.64
81961;BME280;71462;50.650;6.888;2023-09-19T02:49:08;99248.28;;;13.90;64.54
81961;BME280;71462;50.650;6.888;2023-09-19T02:51:12;99243.31;;;14.18;63.68
81961;BME280;71462;50.650;6.888;2023-09-19T02:53:15;99253.28;;;14.34;63.47
81961;BME280;71462;50.650;6.888;2023-09-19T02:55:18;99251.22;;;14.31;63.21
81961;BME280;71462;50.650;6.888;2023-09-19T02:57:23;99250.22;;;14.45;63.83
81961;BME280;71462;50.650;6.888;2023-09-19T02:59:26;99247.03;;;14.51;62.78
81961;BME280;71462;50.650;6.888;2023-09-19T03:01:29;99253.88;;;14.40;62.80
81961;BME280;71462;50.650;6.888;2023-09-19T03:03:33;99256.31;;;14.07;63.44
81961;BME280;71462;50.650;6.888;2023-09-19T03:05:36;99261.38;;;14.09;63.44
81961;BME280;71462;50.650;6.888;2023-09-19T03:07:41;99255.50;;;14.24;63.52
81961;BME280;71462;50.650;6.888;2023-09-19T03:09:44;99246.06;;;13.75;64.03
81961;BME280;71462;50.650;6.888;2023-09-19T03:11:47;99254.78;;;13.15;67.00
81961;BME280;71462;50.650;6.888;2023-09-19T03:13:53;99253.75;;;13.33;66.00
81961;BME280;71462;50.650;6.888;2023-09-19T03:15:56;99258.03;;;13.60;65.14
81961;BME280;71462;50.650;6.888;2023-09-19T03:17:59;99260.13;;;13.80;64.77
81961;BME280;71462;50.650;6.888;2023-09-19T03:20:02;99261.88;;;13.67;63.77
81961;BME280;71462;50.650;6.888;2023-09-19T03:22:10;99263.94;;;13.14;65.00
81961;BME280;71462;50.650;6.888;2023-09-19T03:24:14;99266.44;;;13.67;64.19
81961;BME280;71462;50.650;6.888;2023-09-19T03:26:16;99267.47;;;13.40;64.13
81961;BME280;71462;50.650;6.888;2023-09-19T03:28:19;99267.38;;;13.62;64.15
81961;BME280;71462;50.650;6.888;2023-09-19T03:30:24;99263.06;;;13.53;62.91
81961;BME280;71462;50.650;6.888;2023-09-19T03:32:27;99267.00;;;13.29;63.78
81961;BME280;71462;50.650;6.888;2023-09-19T03:34:30;99267.22;;;13.59;62.44
81961;BME280;71462;50.650;6.888;2023-09-19T03:36:34;99266.06;;;13.42;63.29
81961;BME280;71462;50.650;6.888;2023-09-19T03:38:37;99271.47;;;13.60;62.51
81961;BME280;71462;50.650;6.888;2023-09-19T03:40:43;99270.00;;;13.28;63.33
81961;BME280;71462;50.650;6.888;2023-09-19T03:42:46;99273.81;;;13.53;62.73
81961;BME280;71462;50.650;6.888;2023-09-19T03:44:49;99270.66;;;13.51;62.72
81961;BME280;71462;50.650;6.888;2023-09-19T03:46:53;99276.97;;;13.55;62.40
81961;BME280;71462;50.650;6.888;2023-09-19T03:48:57;99264.97;;;13.43;62.70
81961;BME280;71462;50.650;6.888;2023-09-19T03:50:59;99262.94;;;13.66;62.86
81961;BME280;71462;50.650;6.888;2023-09-19T03:53:03;99266.44;;;14.01;60.64
81961;BME280;71462;50.650;6.888;2023-09-19T03:55:06;99269.75;;;14.16;60.64
81961;BME280;71462;50.650;6.888;2023-09-19T03:57:12;99268.31;;;14.27;60.08
81961;BME280;71462;50.650;6.888;2023-09-19T03:59:18;99262.47;;;14.25;59.78
81961;BME280;71462;50.650;6.888;2023-09-19T04:01:21;99269.09;;;14.19;59.79
81961;BME280;71462;50.650;6.888;2023-09-19T04:03:23;99267.97;;;14.37;59.51
81961;BME280;71462;50.650;6.888;2023-09-19T04:05:36;99271.91;;;14.40;59.62
81961;BME280;71462;50.650;6.888;2023-09-19T04:07:38;99273.00;;;14.56;59.04
81961;BME280;71462;50.650;6.888;2023-09-19T04:09:41;99264.59;;;14.57;58.80
81961;BME280;71462;50.650;6.888;2023-09-19T04:11:43;99270.78;;;14.58;58.75
81961;BME280;71462;50.650;6.888;2023-09-19T04:13:47;99278.78;;;14.02;59.94
81961;BME280;71462;50.650;6.888;2023-09-19T04:15:50;99273.88;;;14.22;59.58
81961;BME280;71462;50.650;6.888;2023-09-19T04:17:52;99272.72;;;14.31;59.79
81961;BME280;71462;50.650;6.888;2023-09-19T04:19:55;99276.81;;;14.46;59.45
81961;BME280;71462;50.650;6.888;2023-09-19T04:21:58;99280.47;;;14.42;59.02
81961;BME280;71462;50.650;6.888;2023-09-19T04:24:00;99282.31;;;14.50;59.73
81961;BME280;71462;50.650;6.888;2023-09-19T04:26:02;99284.09;;;14.63;58.86
81961;BME280;71462;50.650;6.888;2023-09-19T04:28:05;99288.97;;;14.61;58.97
81961;BME280;71462;50.650;6.888;2023-09-19T04:30:10;99291.03;;;14.55;59.08
81961;BME280;71462;50.650;6.888;2023-09-19T04:32:13;99289.78;;;14.44;58.97
81961;BME280;71462;50.650;6.888;2023-09-19T04:34:17;99287.94;;;14.27;59.82
81961;BME280;71462;50.650;6.888;2023-09-19T04:36:19;99283.00;;;14.38;58.94
81961;BME280;71462;50.650;6.888;2023-09-19T04:38:36;99287.25;;;14.48;58.88
81961;BME280;71462;50.650;6.888;2023-09-19T04:40:39;99289.63;;;14.41;58.74
81961;BME280;71462;50.650;6.888;2023-09-19T04:42:41;99281.28;;;14.25;59.04
81961;BME280;71462;50.650;6.888;2023-09-19T04:44:43;99287.91;;;14.19;58.89
81961;BME280;71462;50.650;6.888;2023-09-19T04:46:47;99294.72;;;14.16;58.90
81961;BME280;71462;50.650;6.888;2023-09-19T04:48:50;99296.50;;;13.95;60.26
81961;BME280;71462;50.650;6.888;2023-09-19T04:50:53;99288.09;;;13.79;60.82
81961;BME280;71462;50.650;6.888;2023-09-19T04:52:55;99288.03;;;13.53;61.83
81961;BME280;71462;50.650;6.888;2023-09-19T04:54:58;99284.94;;;13.77;60.63
81961;BME280;71462;50.650;6.888;2023-09-19T04:57:00;99293.78;;;13.69;60.97
81961;BME280;71462;50.650;6.888;2023-09-19T04:59:03;99288.66;;;13.41;62.22
81961;BME280;71462;50.650;6.888;2023-09-19T05:01:04;99291.72;;;13.09;63.27
81961;BME280;71462;50.650;6.888;2023-09-19T05:03:08;99295.84;;;13.15;63.33
81961;BME280;71462;50.650;6.888;2023-09-19T05:05:11;99288.41;;;13.12;63.43
81961;BME280;71462;50.650;6.888;2023-09-19T05:07:18;99281.03;;;13.26;62.48
81961;BME280;71462;50.650;6.888;2023-09-19T05:09:20;99296.28;;;13.08;62.82
81961;BME280;71462;50.650;6.888;2023-09-19T05:11:23;99303.31;;;12.87;63.64
81961;BME280;71462;50.650;6.888;2023-09-19T05:13:26;99305.34;;;12.59;65.43
81961;BME280;71462;50.650;6.888;2023-09-19T05:15:29;99302.47;;;12.78;63.80
81961;BME280;71462;50.650;6.888;2023-09-19T05:17:31;99310.22;;;13.19;63.07
81961;BME280;71462;50.650;6.888;2023-09-19T05:19:35;99317.47;;;13.19;62.16
81961;BME280;71462;50.650;6.888;2023-09-19T05:21:38;99323.00;;;13.14;63.21
81961;BME280;71462;50.650;6.888;2023-09-19T05:23:41;99319.09;;;13.28;62.53
81961;BME280;71462;50.650;6.888;2023-09-19T05:25:43;99327.97;;;12.98;63.94
81961;BME280;71462;50.650;6.888;2023-09-19T05:27:46;99326.47;;;13.23;62.90
81961;BME280;71462;50.650;6.888;2023-09-19T05:29:48;99327.72;;;13.17;62.64
81961;BME280;71462;50.650;6.888;2023-09-19T05:31:52;99331.97;;;13.09;63.00
81961;BME280;71462;50.650;6.888;2023-09-19T05:33:56;99339.53;;;13.07;63.01
81961;BME280;71462;50.650;6.888;2023-09-19T05:36:00;99340.47;;;13.02;63.36
81961;BME280;71462;50.650;6.888;2023-09-19T05:38:02;99340.34;;;13.07;63.69
81961;BME280;71462;50.650;6.888;2023-09-19T05:40:07;99348.28;;;13.21;63.05
81961;BME280;71462;50.650;6.888;2023-09-19T05:42:13;99355.53;;;12.90;63.55
81961;BME280;71462;50.650;6.888;2023-09-19T05:44:15;99349.44;;;12.67;64.64
81961;BME280;71462;50.650;6.888;2023-09-19T05:46:18;99354.00;;;12.66;64.43
81961;BME280;71462;50.650;6.888;2023-09-19T05:48:21;99357.03;;;12.51;64.99
81961;BME280;71462;50.650;6.888;2023-09-19T05:50:23;99365.16;;;12.60;64.92
81961;BME280;71462;50.650;6.888;2023-09-19T05:52:28;99360.53;;;12.74;65.20
81961;BME280;71462;50.650;6.888;2023-09-19T05:54:31;99356.59;;;12.80;63.78
81961;BME280;71462;50.650;6.888;2023-09-19T05:56:34;99365.72;;;12.70;64.31
81961;BME280;71462;50.650;6.888;2023-09-19T05:58:37;99360.53;;;12.74;63.76
81961;BME280;71462;50.650;6.888;2023-09-19T06:00:42;99372.69;;;12.58;64.44
81961;BME280;71462;50.650;6.888;2023-09-19T06:02:49;99371.53;;;12.50;65.06
81961;BME280;71462;50.650;6.888;2023-09-19T06:04:52;99371.22;;;12.29;65.73
81961;BME280;71462;50.650;6.888;2023-09-19T06:06:56;99370.31;;;12.78;64.32
81961;BME280;71462;50.650;6.888;2023-09-19T06:09:00;99376.88;;;12.50;64.32
81961;BME280;71462;50.650;6.888;2023-09-19T06:11:03;99376.25;;;12.67;64.61
81961;BME280;71462;50.650;6.888;2023-09-19T06:13:10;99379.72;;;12.67;64.38
81961;BME280;71462;50.650;6.888;2023-09-19T06:15:13;99381.88;;;12.88;63.19
81961;BME280;71462;50.650;6.888;2023-09-19T06:17:17;99385.22;;;12.48;64.67
81961;BME280;71462;50.650;6.888;2023-09-19T06:19:21;99385.38;;;12.88;63.69
81961;BME280;71462;50.650;6.888;2023-09-19T06:21:24;99391.00;;;12.78;63.77
81961;BME280;71462;50.650;6.888;2023-09-19T06:23:28;99394.66;;;12.82;63.76
81961;BME280;71462;50.650;6.888;2023-09-19T06:25:32;99399.97;;;12.73;64.12
81961;BME280;71462;50.650;6.888;2023-09-19T06:27:34;99399.84;;;12.42;64.05
81961;BME280;71462;50.650;6.888;2023-09-19T06:29:37;99407.38;;;12.76;64.44
81961;BME280;71462;50.650;6.888;2023-09-19T06:31:40;99405.38;;;12.82;63.79
81961;BME280;71462;50.650;6.888;2023-09-19T06:33:43;99406.47;;;13.03;63.71
81961;BME280;71462;50.650;6.888;2023-09-19T06:35:46;99409.22;;;12.67;64.34
81961;BME280;71462;50.650;6.888;2023-09-19T06:37:49;99404.75;;;12.85;63.17
81961;BME280;71462;50.650;6.888;2023-09-19T06:39:52;99398.28;;;12.86;63.24
81961;BME280;71462;50.650;6.888;2023-09-19T06:41:56;99399.84;;;12.78;63.25
81961;BME280;71462;50.650;6.888;2023-09-19T06:43:59;99400.28;;;13.34;62.60
81961;BME280;71462;50.650;6.888;2023-09-19T06:46:02;99410.72;;;13.35;62.57
81961;BME280;71462;50.650;6.888;2023-09-19T06:48:05;99417.09;;;13.17;63.10
81961;BME280;71462;50.650;6.888;2023-09-19T06:50:08;99410.28;;;13.11;62.90
81961;BME280;71462;50.650;6.888;2023-09-19T06:52:14;99418.06;;;13.21;62.64
81961;BME280;71462;50.650;6.888;2023-09-19T06:54:17;99418.84;;;13.22;62.75
81961;BME280;71462;50.650;6.888;2023-09-19T06:56:19;99419.66;;;13.62;61.93
81961;BME280;71462;50.650;6.888;2023-09-19T06:58:28;99425.72;;;13.67;61.72
81961;BME280;71462;50.650;6.888;2023-09-19T07:00:30;99421.16;;;13.77;61.02
81961;BME280;71462;50.650;6.888;2023-09-19T07:02:37;99413.13;;;13.85;61.15
81961;BME280;71462;50.650;6.888;2023-09-19T07:04:39;99419.38;;;13.63;61.29
81961;BME280;71462;50.650;6.888;2023-09-19T07:06:42;99403.97;;;13.95;61.05
81961;BME280;71462;50.650;6.888;2023-09-19T07:08:44;99407.47;;;14.13;60.34
81961;BME280;71462;50.650;6.888;2023-09-19T07:10:47;99407.31;;;14.18;60.54
81961;BME280;71462;50.650;6.888;2023-09-19T07:12:55;99398.28;;;14.05;60.52
81961;BME280;71462;50.650;6.888;2023-09-19T07:15:00;99407.31;;;14.44;59.77
81961;BME280;71462;50.650;6.888;2023-09-19T07:17:03;99423.06;;;13.85;60.52
81961;BME280;71462;50.650;6.888;2023-09-19T07:19:06;99410.66;;;13.58;61.20
81961;BME280;71462;50.650;6.888;2023-09-19T07:21:08;99393.72;;;13.97;60.95
81961;BME280;71462;50.650;6.888;2023-09-19T07:23:17;99403.06;;;14.34;59.54
81961;BME280;71462;50.650;6.888;2023-09-19T07:25:22;99407.97;;;14.32;59.72
81961;BME280;71462;50.650;6.888;2023-09-19T07:27:25;99409.56;;;14.59;58.77
81961;BME280;71462;50.650;6.888;2023-09-19T07:29:27;99414.09;;;15.02;57.19
81961;BME280;71462;50.650;6.888;2023-09-19T07:31:33;99402.09;;;14.90;56.58
81961;BME280;71462;50.650;6.888;2023-09-19T07:33:36;99402.75;;;14.44;58.29
81961;BME280;71462;50.650;6.888;2023-09-19T07:35:39;99411.16;;;14.69;57.42
81961;BME280;71462;50.650;6.888;2023-09-19T07:37:42;99415.88;;;14.89;57.48
81961;BME280;71462;50.650;6.888;2023-09-19T07:39:44;99417.59;;;14.16;58.59
81961;BME280;71462;50.650;6.888;2023-09-19T07:41:46;99411.44;;;14.58;58.71
81961;BME280;71462;50.650;6.888;2023-09-19T07:43:50;99413.34;;;14.41;58.90
81961;BME280;71462;50.650;6.888;2023-09-19T07:45:53;99415.41;;;14.70;58.45
81961;BME280;71462;50.650;6.888;2023-09-19T07:47:57;99422.06;;;14.63;58.63
81961;BME280;71462;50.650;6.888;2023-09-19T07:49:58;99423.59;;;14.99;57.81
81961;BME280;71462;50.650;6.888;2023-09-19T07:52:03;99431.72;;;14.90;57.08
81961;BME280;71462;50.650;6.888;2023-09-19T07:54:06;99429.47;;;15.01;57.05
81961;BME280;71462;50.650;6.888;2023-09-19T07:56:09;99431.03;;;15.02;56.70
81961;BME280;71462;50.650;6.888;2023-09-19T07:58:12;99431.72;;;14.64;58.19
81961;BME280;71462;50.650;6.888;2023-09-19T08:00:15;99437.25;;;14.77;57.38
81961;BME280;71462;50.650;6.888;2023-09-19T08:02:17;99438.66;;;15.00;57.59
81961;BME280;71462;50.650;6.888;2023-09-19T08:04:21;99439.13;;;15.02;57.73
81961;BME280;71462;50.650;6.888;2023-09-19T08:06:24;99443.69;;;15.19;56.74
81961;BME280;71462;50.650;6.888;2023-09-19T08:08:30;99451.31;;;15.00;56.55
81961;BME280;71462;50.650;6.888;2023-09-19T08:10:33;99451.34;;;15.55;55.52
81961;BME280;71462;50.650;6.888;2023-09-19T08:12:36;99449.72;;;15.63;54.81
81961;BME280;71462;50.650;6.888;2023-09-19T08:14:47;99449.84;;;15.19;54.84
81961;BME280;71462;50.650;6.888;2023-09-19T08:16:49;99448.16;;;15.62;54.73
81961;BME280;71462;50.650;6.888;2023-09-19T08:18:52;99454.16;;;15.50;55.43
81961;BME280;71462;50.650;6.888;2023-09-19T08:20:57;99463.88;;;15.42;55.24
81961;BME280;71462;50.650;6.888;2023-09-19T08:23:01;99462.28;;;15.41;55.34
81961;BME280;71462;50.650;6.888;2023-09-19T08:25:05;99459.56;;;15.50;54.86
81961;BME280;71462;50.650;6.888;2023-09-19T08:27:07;99460.59;;;15.28;55.20
81961;BME280;71462;50.650;6.888;2023-09-19T08:29:12;99458.69;;;15.75;55.13
81961;BME280;71462;50.650;6.888;2023-09-19T08:31:16;99450.97;;;16.24;54.05
81961;BME280;71462;50.650;6.888;2023-09-19T08:33:19;99466.56;;;16.39;53.63
81961;BME280;71462;50.650;6.888;2023-09-19T08:35:23;99446.72;;;16.65;52.44
81961;BME280;71462;50.650;6.888;2023-09-19T08:37:27;99450.44;;;16.93;52.58
81961;BME280;71462;50.650;6.888;2023-09-19T08:39:30;99460.13;;;16.73;51.45
81961;BME280;71462;50.650;6.888;2023-09-19T08:41:34;99464.66;;;16.19;53.13
81961;BME280;71462;50.650;6.888;2023-09-19T08:43:37;99461.75;;;16.54;52.15
81961;BME280;71462;50.650;6.888;2023-09-19T08:45:41;99455.81;;;16.60;52.71
81961;BME280;71462;50.650;6.888;2023-09-19T08:47:46;99468.00;;;16.99;50.81
81961;BME280;71462;50.650;6.888;2023-09-19T08:49:53;99466.63;;;16.93;50.53
81961;BME280;71462;50.650;6.888;2023-09-19T08:52:06;99448.09;;;16.71;50.44
81961;BME280;71462;50.650;6.888;2023-09-19T08:54:21;99456.91;;;16.38;52.87
81961;BME280;71462;50.650;6.888;2023-09-19T08:56:24;99458.81;;;15.87;53.09
81961;BME280;71462;50.650;6.888;2023-09-19T08:58:31;99438.63;;;15.94;52.57
81961;BME280;71462;50.650;6.888;2023-09-19T09:00:37;99452.22;;;15.21;53.66
81961;BME280;71462;50.650;6.888;2023-09-19T09:02:43;99454.78;;;15.64;52.99
81961;BME280;71462;50.650;6.888;2023-09-19T09:04:48;99450.94;;;15.74;53.04
81961;BME280;71462;50.650;6.888;2023-09-19T09:06:53;99446.66;;;16.02;52.44
81961;BME280;71462;50.650;6.888;2023-09-19T09:08:57;99452.38;;;15.24;53.21
81961;BME280;71462;50.650;6.888;2023-09-19T09:11:01;99458.31;;;15.56;54.05
81961;BME280;71462;50.650;6.888;2023-09-19T09:13:03;99458.63;;;15.93;53.25
81961;BME280;71462;50.650;6.888;2023-09-19T09:15:08;99460.66;;;15.66;53.33
81961;BME280;71462;50.650;6.888;2023-09-19T09:17:13;99457.78;;;16.01;51.97
81961;BME280;71462;50.650;6.888;2023-09-19T09:19:15;99450.88;;;15.91;53.52
81961;BME280;71462;50.650;6.888;2023-09-19T09:21:26;99456.25;;;16.20;49.90
81961;BME280;71462;50.650;6.888;2023-09-19T09:23:28;99450.88;;;16.12;52.46
81961;BME280;71462;50.650;6.888;2023-09-19T09:25:47;99454.03;;;15.93;51.83
81961;BME280;71462;50.650;6.888;2023-09-19T09:28:00;99461.59;;;15.70;52.86
81961;BME280;71462;50.650;6.888;2023-09-19T09:30:04;99455.00;;;15.42;53.56
81961;BME280;71462;50.650;6.888;2023-09-19T09:32:26;99458.69;;;15.75;51.70
81961;BME280;71462;50.650;6.888;2023-09-19T09:34:32;99455.09;;;16.01;51.67
81961;BME280;71462;50.650;6.888;2023-09-19T09:36:37;99449.38;;;16.02;53.20
81961;BME280;71462;50.650;6.888;2023-09-19T09:38:46;99452.28;;;15.59;52.55
81961;BME280;71462;50.650;6.888;2023-09-19T09:40:52;99447.91;;;15.75;51.73
81961;BME280;71462;50.650;6.888;2023-09-19T09:43:03;99443.09;;;16.40;51.39
81961;BME280;71462;50.650;6.888;2023-09-19T09:45:26;99443.31;;;16.56;50.10
81961;BME280;71462;50.650;6.888;2023-09-19T09:47:44;99445.91;;;15.64;51.28
81961;BME280;71462;50.650;6.888;2023-09-19T09:49:55;99442.66;;;15.79;51.54
81961;BME280;71462;50.650;6.888;2023-09-19T09:52:08;99444.53;;;16.16;50.88
81961;BME280;71462;50.650;6.888;2023-09-19T09:54:18;99434.19;;;16.18;50.74
81961;BME280;71462;50.650;6.888;2023-09-19T09:56:21;99432.59;;;15.97;50.83
81961;BME280;71462;50.650;6.888;2023-09-19T09:58:25;99435.47;;;16.96;48.36
81961;BME280;71462;50.650;6.888;2023-09-19T10:00:31;99432.09;;;16.66;48.44
81961;BME280;71462;50.650;6.888;2023-09-19T10:02:43;99439.66;;;16.72;49.25
81961;BME280;71462;50.650;6.888;2023-09-19T10:04:48;99436.06;;;16.47;48.95
81961;BME280;71462;50.650;6.888;2023-09-19T10:07:24;99432.50;;;16.56;48.95
81961;BME280;71462;50.650;6.888;2023-09-19T10:09:29;99424.84;;;16.78;48.44
81961;BME280;71462;50.650;6.888;2023-09-19T10:11:43;99425.13;;;16.98;47.00
81961;BME280;71462;50.650;6.888;2023-09-19T10:13:47;99429.81;;;16.56;48.36
81961;BME280;71462;50.650;6.888;2023-09-19T10:15:51;99427.63;;;16.28;49.06
81961;BME280;71462;50.650;6.888;2023-09-19T10:17:57;99434.03;;;17.10;48.54
81961;BME280;71462;50.650;6.888;2023-09-19T10:20:03;99433.59;;;17.66;46.17
81961;BME280;71462;50.650;6.888;2023-09-19T10:22:11;99417.69;;;17.28;45.63
81961;BME280;71462;50.650;6.888;2023-09-19T10:24:14;99420.09;;;17.08;46.24
81961;BME280;71462;50.650;6.888;2023-09-19T10:26:19;99417.56;;;16.58;47.38
81961;BME280;71462;50.650;6.888;2023-09-19T10:28:22;99420.53;;;16.44;48.25
81961;BME280;71462;50.650;6.888;2023-09-19T10:30:27;99414.78;;;17.12;47.01
81961;BME280;71462;50.650;6.888;2023-09-19T10:32:32;99414.78;;;17.00;46.76
81961;BME280;71462;50.650;6.888;2023-09-19T10:34:36;99410.53;;;16.78;45.65
81961;BME280;71462;50.650;6.888;2023-09-19T10:36:44;99410.66;;;16.48;48.51
81961;BME280;71462;50.650;6.888;2023-09-19T10:38:49;99421.72;;;16.56;46.74
81961;BME280;71462;50.650;6.888;2023-09-19T10:40:55;99409.06;;;16.47;47.32
81961;BME280;71462;50.650;6.888;2023-09-19T10:43:03;99416.38;;;17.13;45.84
81961;BME280;71462;50.650;6.888;2023-09-19T10:45:08;99406.47;;;16.72;46.02
81961;BME280;71462;50.650;6.888;2023-09-19T10:47:16;99419.53;;;16.70;46.50
81961;BME280;71462;50.650;6.888;2023-09-19T10:49:21;99415.59;;;16.46;46.90
81961;BME280;71462;50.650;6.888;2023-09-19T10:51:25;99421.19;;;16.95;45.74
81961;BME280;71462;50.650;6.888;2023-09-19T10:53:43;99421.31;;;17.11;45.33
81961;BME280;71462;50.650;6.888;2023-09-19T10:55:52;99422.72;;;16.84;45.68
81961;BME280;71462;50.650;6.888;2023-09-19T10:57:58;99428.69;;;17.23;45.27
81961;BME280;71462;50.650;6.888;2023-09-19T11:00:16;99426.81;;;16.69;45.79
81961;BME280;71462;50.650;6.888;2023-09-19T11:02:29;99424.00;;;18.05;44.07